sensor_id;sensor_type;location;lat;lon;timestamp;temperature;humidity
34574;DHT22;20809;49.594;8.734;2023-09-19T00:00:58;16.80;99.90
34574;DHT22;20809;49.594;8.734;2023-09-19T00:03:59;16.80;99.90
34574;DHT22;20809;49.594;8.734;2023-09-19T00:07:00;16.80;99.90
34574;DHT22;20809;49.594;8.734;2023-09-19T00:10:03;16.80;99.90
34574;DHT22;20809;49.594;8.734;2023-09-19T00:13:05;16.80;99.90
34574;DHT22;20809;49.594;8.734;2023-09-19T00:16:09;16.90;99.90
34574;DHT22;20809;49.594;8.734;2023-09-19T00:19:14;16.90;99.90
34574;DHT22;20809;49.594;8.734;2023-09-19T00:22:16;16.80;99.90
34574;DHT22;20809;49.594;8.734;2023-09-19T00:25:20;16.80;99.90
34574;DHT22;20809;49.594;8.734;2023-09-19T00:28:20;16.80;99.90
34574;DHT22;20809;49.594;8.734;2023-09-19T00:31:21;16.90;99.90
34574;DHT22;20809;49.594;8.734;2023-09-19T00:34:25;16.90;99.90
34574;DHT22;20809;49.594;8.734;2023-09-19T00:37:30;16.90;99.90
34574;DHT22;20809;49.594;8.734;2023-09-19T00:40:31;16.90;99.90
34574;DHT22;20809;49.594;8.734;2023-09-19T00:43:34;16.90;99.90
34574;DHT22;20809;49.594;8.734;2023-09-19T00:46:36;16.90;99.90
34574;DHT22;20809;49.594;8.734;2023-09-19T00:49:38;17.00;99.90
34574;DHT22;20809;49.594;8.734;2023-09-19T00:52:42;17.00;99.90
34574;DHT22;20809;49.594;8.734;2023-09-19T00:59:09;17.00;99.90
34574;DHT22;20809;49.594;8.734;2023-09-19T01:02:11;17.00;99.90
34574;DHT22;20809;49.594;8.734;2023-09-19T01:05:15;17.00;99.90
34574;DHT22;20809;49.594;8.734;2023-09-19T01:08:17;17.00;99.90
34574;DHT22;20809;49.594;8.734;2023-09-19T01:11:33;17.00;99.90
34574;DHT22;20809;49.594;8.734;2023-09-19T01:14:42;16.90;99.90
34574;DHT22;20809;49.594;8.734;2023-09-19T01:18:08;17.00;99.90
34574;DHT22;20809;49.594;8.734;2023-09-19T01:21:50;17.00;99.90
34574;DHT22;20809;49.594;8.734;2023-09-19T01:25:34;17.00;99.90
34574;DHT22;20809;49.594;8.734;2023-09-19T01:29:47;17.10;99.90
34574;DHT22;20809;49.594;8.734;2023-09-19T01:32:26;17.00;99.90
34574;DHT22;20809;49.594;8.734;2023-09-19T01:35:28;17.00;99.90
34574;DHT22;20809;49.594;8.734;2023-09-19T01:38:30;17.00;99.90
34574;DHT22;20809;49.594;8.734;2023-09-19T01:44:57;16.90;99.90
34574;DHT22;20809;49.594;8.734;2023-09-19T01:48:19;17.00;99.90
34574;DHT22;20809;49.594;8.734;2023-09-19T01:51:45;17.00;99.90
34574;DHT22;20809;49.594;8.734;2023-09-19T01:54:52;17.00;99.90
34574;DHT22;20809;49.594;8.734;2023-09-19T01:58:05;17.00;99.90
34574;DHT22;20809;49.594;8.734;2023-09-19T02:01:08;17.10;99.90
34574;DHT22;20809;49.594;8.734;2023-09-19T02:04:12;17.00;99.90
34574;DHT22;20809;49.594;8.734;2023-09-19T02:07:14;17.00;99.90
34574;DHT22;20809;49.594;8.734;2023-09-19T02:10:19;17.00;99.90
34574;DHT22;20809;49.594;8.734;2023-09-19T02:13:22;17.00;99.90
34574;DHT22;20809;49.594;8.734;2023-09-19T02:16:29;17.00;99.90
34574;DHT22;20809;49.594;8.734;2023-09-19T02:19:31;17.00;99.90
34574;DHT22;20809;49.594;8.734;2023-09-19T02:22:33;17.00;99.90
34574;DHT22;20809;49.594;8.734;2023-09-19T02:25:36;16.90;99.90
34574;DHT22;20809;49.594;8.734;2023-09-19T02:28:39;17.00;99.90
34574;DHT22;20809;49.594;8.734;2023-09-19T02:31:41;16.90;99.90
34574;DHT22;20809;49.594;8.734;2023-09-19T02:34:42;16.90;99.90
34574;DHT22;20809;49.594;8.734;2023-09-19T02:37:46;16.90;99.90
34574;DHT22;20809;49.594;8.734;2023-09-19T02:40:48;16.90;99.90
34574;DHT22;20809;49.594;8.734;2023-09-19T02:43:50;16.80;99.90
34574;DHT22;20809;49.594;8.734;2023-09-19T02:46:54;16.80;99.90
34574;DHT22;20809;49.594;8.734;2023-09-19T02:49:59;16.80;99.90
34574;DHT22;20809;49.594;8.734;2023-09-19T02:53:02;16.70;99.90
34574;DHT22;20809;49.594;8.734;2023-09-19T02:56:06;16.70;99.90
34574;DHT22;20809;49.594;8.734;2023-09-19T02:59:08;16.60;99.90
34574;DHT22;20809;49.594;8.734;2023-09-19T03:02:11;16.60;99.90
34574;DHT22;20809;49.594;8.734;2023-09-19T03:05:13;16.70;99.90
34574;DHT22;20809;49.594;8.734;2023-09-19T03:08:15;16.70;99.90
34574;DHT22;20809;49.594;8.734;2023-09-19T03:11:18;16.70;99.90
34574;DHT22;20809;49.594;8.734;2023-09-19T03:14:24;16.70;99.90
34574;DHT22;20809;49.594;8.734;2023-09-19T03:17:26;16.80;99.90
34574;DHT22;20809;49.594;8.734;2023-09-19T03:20:28;16.70;99.90
34574;DHT22;20809;49.594;8.734;2023-09-19T03:23:30;16.70;99.90
34574;DHT22;20809;49.594;8.734;2023-09-19T03:26:32;16.70;99.90
34574;DHT22;20809;49.594;8.734;2023-09-19T03:29:34;16.60;99.90
34574;DHT22;20809;49.594;8.734;2023-09-19T03:32:37;16.50;99.90
34574;DHT22;20809;49.594;8.734;2023-09-19T03:35:39;16.40;99.90
34574;DHT22;20809;49.594;8.734;2023-09-19T03:38:41;16.30;99.90
34574;DHT22;20809;49.594;8.734;2023-09-19T03:41:43;16.30;99.90
34574;DHT22;20809;49.594;8.734;2023-09-19T03:44:46;16.20;99.90
34574;DHT22;20809;49.594;8.734;2023-09-19T03:47:48;16.10;99.90
34574;DHT22;20809;49.594;8.734;2023-09-19T03:50:50;16.00;99.90
34574;DHT22;20809;49.594;8.734;2023-09-19T03:53:52;15.90;99.90
34574;DHT22;20809;49.594;8.734;2023-09-19T03:56:54;15.80;99.90
34574;DHT22;20809;49.594;8.734;2023-09-19T03:59:56;15.80;99.90
34574;DHT22;20809;49.594;8.734;2023-09-19T04:02:57;15.70;99.90
34574;DHT22;20809;49.594;8.734;2023-09-19T04:05:59;15.70;99.90
34574;DHT22;20809;49.594;8.734;2023-09-19T04:09:05;15.70;99.90
34574;DHT22;20809;49.594;8.734;2023-09-19T04:12:10;15.70;99.90
34574;DHT22;20809;49.594;8.734;2023-09-19T04:15:12;15.70;99.90
34574;DHT22;20809;49.594;8.734;2023-09-19T04:18:14;15.60;99.90
34574;DHT22;20809;49.594;8.734;2023-09-19T04:21:16;15.60;99.90
34574;DHT22;20809;49.594;8.734;2023-09-19T04:24:18;15.60;99.90
34574;DHT22;20809;49.594;8.734;2023-09-19T04:27:20;15.50;99.90
34574;DHT22;20809;49.594;8.734;2023-09-19T04:30:21;15.50;99.90
34574;DHT22;20809;49.594;8.734;2023-09-19T04:33:24;15.50;99.90
34574;DHT22;20809;49.594;8.734;2023-09-19T04:36:26;15.40;99.90
34574;DHT22;20809;49.594;8.734;2023-09-19T04:39:28;15.30;99.90
34574;DHT22;20809;49.594;8.734;2023-09-19T04:42:30;15.30;99.90
34574;DHT22;20809;49.594;8.734;2023-09-19T04:45:34;15.20;99.90
34574;DHT22;20809;49.594;8.734;2023-09-19T04:48:35;15.20;99.90
34574;DHT22;20809;49.594;8.734;2023-09-19T04:51:38;15.20;99.90
34574;DHT22;20809;49.594;8.734;2023-09-19T04:54:46;15.20;99.90
34574;DHT22;20809;49.594;8.734;2023-09-19T04:57:49;15.20;99.90
34574;DHT22;20809;49.594;8.734;2023-09-19T05:00:51;15.10;99.90
34574;DHT22;20809;49.594;8.734;2023-09-19T05:03:55;15.10;99.90
34574;DHT22;20809;49.594;8.734;2023-09-19T05:06:59;15.00;99.90
34574;DHT22;20809;49.594;8.734;2023-09-19T05:10:03;15.00;99.90
34574;DHT22;20809;49.594;8.734;2023-09-19T05:13:06;15.00;99.90
34574;DHT22;20809;49.594;8.734;2023-09-19T05:16:11;15.00;99.90
34574;DHT22;20809;49.594;8.734;2023-09-19T05:19:15;15.00;99.90
34574;DHT22;20809;49.594;8.734;2023-09-19T05:22:20;15.00;99.90
34574;DHT22;20809;49.594;8.734;2023-09-19T05:25:22;15.00;99.90
34574;DHT22;20809;49.594;8.734;2023-09-19T05:28:23;15.10;99.90
34574;DHT22;20809;49.594;8.734;2023-09-19T05:31:23;15.10;99.90
34574;DHT22;20809;49.594;8.734;2023-09-19T05:34:25;15.10;99.90
34574;DHT22;20809;49.594;8.734;2023-09-19T05:37:29;15.20;99.90
34574;DHT22;20809;49.594;8.734;2023-09-19T05:40:30;15.30;99.90
34574;DHT22;20809;49.594;8.734;2023-09-19T05:43:31;15.40;99.90
34574;DHT22;20809;49.594;8.734;2023-09-19T05:46:32;15.50;99.90
34574;DHT22;20809;49.594;8.734;2023-09-19T05:49:32;15.60;99.90
34574;DHT22;20809;49.594;8.734;2023-09-19T05:52:33;15.60;99.90
34574;DHT22;20809;49.594;8.734;2023-09-19T05:55:34;15.60;99.90
34574;DHT22;20809;49.594;8.734;2023-09-19T05:58:35;15.70;99.90
34574;DHT22;20809;49.594;8.734;2023-09-19T06:01:36;15.80;99.90
34574;DHT22;20809;49.594;8.734;2023-09-19T06:04:37;15.80;99.90
34574;DHT22;20809;49.594;8.734;2023-09-19T06:07:41;16.00;99.90
34574;DHT22;20809;49.594;8.734;2023-09-19T06:10:42;16.00;99.90
34574;DHT22;20809;49.594;8.734;2023-09-19T06:13:42;16.20;99.90
34574;DHT22;20809;49.594;8.734;2023-09-19T06:16:43;16.30;99.90
34574;DHT22;20809;49.594;8.734;2023-09-19T06:19:44;16.40;99.90
34574;DHT22;20809;49.594;8.734;2023-09-19T06:22:47;16.50;99.90
34574;DHT22;20809;49.594;8.734;2023-09-19T06:25:48;16.70;99.90
34574;DHT22;20809;49.594;8.734;2023-09-19T06:28:49;17.10;99.90
34574;DHT22;20809;49.594;8.734;2023-09-19T06:31:50;17.50;99.90
34574;DHT22;20809;49.594;8.734;2023-09-19T06:34:52;17.80;99.90
34574;DHT22;20809;49.594;8.734;2023-09-19T06:37:54;17.80;99.90
34574;DHT22;20809;49.594;8.734;2023-09-19T06:40:58;18.00;99.90
34574;DHT22;20809;49.594;8.734;2023-09-19T06:43:59;18.10;99.90
34574;DHT22;20809;49.594;8.734;2023-09-19T06:47:00;18.40;99.90
34574;DHT22;20809;49.594;8.734;2023-09-19T06:50:00;18.80;99.90
34574;DHT22;20809;49.594;8.734;2023-09-19T06:53:03;18.80;99.90
34574;DHT22;20809;49.594;8.734;2023-09-19T06:56:03;18.80;99.90
34574;DHT22;20809;49.594;8.734;2023-09-19T06:59:04;18.80;99.90
34574;DHT22;20809;49.594;8.734;2023-09-19T07:02:07;18.60;99.90
34574;DHT22;20809;49.594;8.734;2023-09-19T07:05:08;18.20;99.90
34574;DHT22;20809;49.594;8.734;2023-09-19T07:08:10;18.10;99.90
34574;DHT22;20809;49.594;8.734;2023-09-19T07:11:13;17.90;99.90
34574;DHT22;20809;49.594;8.734;2023-09-19T07:14:14;17.90;99.90
34574;DHT22;20809;49.594;8.734;2023-09-19T07:17:15;17.80;99.90
34574;DHT22;20809;49.594;8.734;2023-09-19T07:20:19;17.80;99.90
34574;DHT22;20809;49.594;8.734;2023-09-19T07:23:21;17.80;99.90
34574;DHT22;20809;49.594;8.734;2023-09-19T07:26:22;17.80;99.90
34574;DHT22;20809;49.594;8.734;2023-09-19T07:29:23;18.00;99.90
34574;DHT22;20809;49.594;8.734;2023-09-19T07:32:23;18.00;99.90
34574;DHT22;20809;49.594;8.734;2023-09-19T07:35:24;18.00;99.90
34574;DHT22;20809;49.594;8.734;2023-09-19T07:38:26;18.20;99.90
34574;DHT22;20809;49.594;8.734;2023-09-19T07:41:27;18.40;99.90
34574;DHT22;20809;49.594;8.734;2023-09-19T07:44:30;18.60;99.90
34574;DHT22;20809;49.594;8.734;2023-09-19T07:47:32;18.70;99.90
34574;DHT22;20809;49.594;8.734;2023-09-19T07:50:34;18.90;99.90
34574;DHT22;20809;49.594;8.734;2023-09-19T07:53:37;19.10;99.90
34574;DHT22;20809;49.594;8.734;2023-09-19T07:56:39;19.20;99.90
34574;DHT22;20809;49.594;8.734;2023-09-19T07:59:39;19.20;99.90
34574;DHT22;20809;49.594;8.734;2023-09-19T08:02:43;19.00;99.90
34574;DHT22;20809;49.594;8.734;2023-09-19T08:05:44;18.90;99.90
34574;DHT22;20809;49.594;8.734;2023-09-19T08:08:45;19.10;99.90
34574;DHT22;20809;49.594;8.734;2023-09-19T08:11:49;19.20;99.90
34574;DHT22;20809;49.594;8.734;2023-09-19T08:14:51;19.20;99.90
34574;DHT22;20809;49.594;8.734;2023-09-19T08:17:51;19.20;99.90
34574;DHT22;20809;49.594;8.734;2023-09-19T08:20:53;19.40;99.90
34574;DHT22;20809;49.594;8.734;2023-09-19T08:23:54;19.70;99.90
34574;DHT22;20809;49.594;8.734;2023-09-19T08:26:58;20.00;99.90
34574;DHT22;20809;49.594;8.734;2023-09-19T08:29:58;20.00;99.90
34574;DHT22;20809;49.594;8.734;2023-09-19T08:33:00;19.90;99.90
34574;DHT22;20809;49.594;8.734;2023-09-19T08:36:04;19.80;99.90
34574;DHT22;20809;49.594;8.734;2023-09-19T08:39:04;19.80;99.90
34574;DHT22;20809;49.594;8.734;2023-09-19T08:42:05;19.60;99.90
34574;DHT22;20809;49.594;8.734;2023-09-19T08:45:08;19.70;99.90
34574;DHT22;20809;49.594;8.734;2023-09-19T08:48:27;19.60;99.90
34574;DHT22;20809;49.594;8.734;2023-09-19T08:51:45;19.50;99.90
34574;DHT22;20809;49.594;8.734;2023-09-19T08:54:47;19.50;99.90
34574;DHT22;20809;49.594;8.734;2023-09-19T08:57:49;19.40;99.90
34574;DHT22;20809;49.594;8.734;2023-09-19T09:00:52;19.20;99.90
34574;DHT22;20809;49.594;8.734;2023-09-19T09:03:54;19.10;99.90
34574;DHT22;20809;49.594;8.734;2023-09-19T09:06:55;19.10;99.90
34574;DHT22;20809;49.594;8.734;2023-09-19T09:09:56;19.30;99.90
34574;DHT22;20809;49.594;8.734;2023-09-19T09:12:58;19.40;99.90
34574;DHT22;20809;49.594;8.734;2023-09-19T09:15:59;19.40;99.90
34574;DHT22;20809;49.594;8.734;2023-09-19T09:19:00;19.50;99.90
34574;DHT22;20809;49.594;8.734;2023-09-19T09:22:10;19.60;99.90
34574;DHT22;20809;49.594;8.734;2023-09-19T09:25:11;19.80;99.90
34574;DHT22;20809;49.594;8.734;2023-09-19T09:28:12;19.70;99.90
34574;DHT22;20809;49.594;8.734;2023-09-19T09:31:24;19.80;99.90
34574;DHT22;20809;49.594;8.734;2023-09-19T09:34:32;19.90;99.90
34574;DHT22;20809;49.594;8.734;2023-09-19T09:37:34;20.10;99.90
34574;DHT22;20809;49.594;8.734;2023-09-19T09:40:49;20.50;99.90
34574;DHT22;20809;49.594;8.734;2023-09-19T09:43:54;20.60;99.90
34574;DHT22;20809;49.594;8.734;2023-09-19T09:46:54;20.70;99.90
34574;DHT22;20809;49.594;8.734;2023-09-19T09:50:30;20.60;99.90
34574;DHT22;20809;49.594;8.734;2023-09-19T09:54:13;20.70;99.90
34574;DHT22;20809;49.594;8.734;2023-09-19T09:57:15;20.60;99.90
34574;DHT22;20809;49.594;8.734;2023-09-19T10:00:21;20.60;99.90
34574;DHT22;20809;49.594;8.734;2023-09-19T10:03:23;20.90;99.90
34574;DHT22;20809;49.594;8.734;2023-09-19T10:06:40;21.20;99.90
34574;DHT22;20809;49.594;8.734;2023-09-19T10:09:48;21.50;99.90
34574;DHT22;20809;49.594;8.734;2023-09-19T10:12:49;21.60;99.90
34574;DHT22;20809;49.594;8.734;2023-09-19T10:15:51;21.70;99.90
34574;DHT22;20809;49.594;8.734;2023-09-19T10:18:55;21.30;99.90
34574;DHT22;20809;49.594;8.734;2023-09-19T10:21:58;21.10;99.90
34574;DHT22;20809;49.594;8.734;2023-09-19T10:25:00;21.20;99.90
34574;DHT22;20809;49.594;8.734;2023-09-19T10:28:05;21.30;99.90
34574;DHT22;20809;49.594;8.734;2023-09-19T10:31:11;21.50;99.90
34574;DHT22;20809;49.594;8.734;2023-09-19T10:34:15;21.90;99.90
34574;DHT22;20809;49.594;8.734;2023-09-19T10:37:18;21.80;99.90
34574;DHT22;20809;49.594;8.734;2023-09-19T10:40:20;21.90;99.90
34574;DHT22;20809;49.594;8.734;2023-09-19T10:43:29;21.50;99.90
34574;DHT22;20809;49.594;8.734;2023-09-19T10:46:32;21.30;99.90
34574;DHT22;20809;49.594;8.734;2023-09-19T10:49:33;21.50;99.90
34574;DHT22;20809;49.594;8.734;2023-09-19T10:52:40;21.70;99.90
34574;DHT22;20809;49.594;8.734;2023-09-19T10:55:51;21.70;99.90
34574;DHT22;20809;49.594;8.734;2023-09-19T10:59:14;21.80;99.90
34574;DHT22;20809;49.594;8.734;2023-09-19T11:02:18;21.90;99.90
34574;DHT22;20809;49.594;8.734;2023-09-19T11:05:20;22.10;99.90
34574;DHT22;20809;49.594;8.734;2023-09-19T11:08:20;22.10;99.90
34574;DHT22;20809;49.594;8.734;2023-09-19T11:11:48;22.10;99.90
34574;DHT22;20809;49.594;8.734;2023-09-19T11:14:56;22.10;99.90
34574;DHT22;20809;49.594;8.734;2023-09-19T11:17:56;22.10;99.90
34574;DHT22;20809;49.594;8.734;2023-09-19T11:24:34;22.40;99.90
34574;DHT22;20809;49.594;8.734;2023-09-19T11:31:41;22.50;99.90
34574;DHT22;20809;49.594;8.734;2023-09-19T11:34:44;22.50;99.90
34574;DHT22;20809;49.594;8.734;2023-09-19T11:38:06;22.40;99.90
34574;DHT22;20809;49.594;8.734;2023-09-19T11:47:27;22.90;99.90
34574;DHT22;20809;49.594;8.734;2023-09-19T11:50:28;23.20;99.90
34574;DHT22;20809;49.594;8.734;2023-09-19T11:53:31;23.20;99.90
34574;DHT22;20809;49.594;8.734;2023-09-19T11:56:39;23.00;99.90
34574;DHT22;20809;49.594;8.734;2023-09-19T11:59:42;22.60;99.90
34574;DHT22;20809;49.594;8.734;2023-09-19T12:02:42;22.50;99.90
34574;DHT22;20809;49.594;8.734;2023-09-19T12:05:47;22.60;99.90
34574;DHT22;20809;49.594;8.734;2023-09-19T12:08:47;22.80;99.90
34574;DHT22;20809;49.594;8.734;2023-09-19T12:11:50;22.80;99.90
34574;DHT22;20809;49.594;8.734;2023-09-19T12:14:52;22.50;99.90
34574;DHT22;20809;49.594;8.734;2023-09-19T12:17:53;22.40;99.90
34574;DHT22;20809;49.594;8.734;2023-09-19T12:20:54;22.30;99.90
34574;DHT22;20809;49.594;8.734;2023-09-19T12:27:12;22.50;99.90
34574;DHT22;20809;49.594;8.734;2023-09-19T12:30:13;22.80;99.90
34574;DHT22;20809;49.594;8.734;2023-09-19T12:33:21;23.00;99.90
34574;DHT22;20809;49.594;8.734;2023-09-19T12:36:26;23.10;99.90
34574;DHT22;20809;49.594;8.734;2023-09-19T12:39:30;23.10;99.90
34574;DHT22;20809;49.594;8.734;2023-09-19T12:42:31;23.30;99.90
34574;DHT22;20809;49.594;8.734;2023-09-19T12:45:36;23.40;99.90
34574;DHT22;20809;49.594;8.734;2023-09-19T12:48:39;23.30;99.90
34574;DHT22;20809;49.594;8.734;2023-09-19T12:51:46;23.20;99.90
34574;DHT22;20809;49.594;8.734;2023-09-19T12:54:46;23.10;99.90
34574;DHT22;20809;49.594;8.734;2023-09-19T12:58:09;23.30;99.90
34574;DHT22;20809;49.594;8.734;2023-09-19T13:01:15;23.30;99.90
34574;DHT22;20809;49.594;8.734;2023-09-19T13:04:21;23.30;99.90
34574;DHT22;20809;49.594;8.734;2023-09-19T13:07:45;23.40;99.90
34574;DHT22;20809;49.594;8.734;2023-09-19T13:14:23;23.30;99.90
34574;DHT22;20809;49.594;8.734;2023-09-19T13:17:24;23.40;99.90
34574;DHT22;20809;49.594;8.734;2023-09-19T13:20:26;23.50;99.90
34574;DHT22;20809;49.594;8.734;2023-09-19T13:23:32;23.30;99.90
34574;DHT22;20809;49.594;8.734;2023-09-19T13:26:33;23.70;99.90
34574;DHT22;20809;49.594;8.734;2023-09-19T13:29:34;23.80;99.90
34574;DHT22;20809;49.594;8.734;2023-09-19T13:32:35;23.80;99.90
34574;DHT22;20809;49.594;8.734;2023-09-19T13:35:36;23.80;99.90
34574;DHT22;20809;49.594;8.734;2023-09-19T13:38:40;23.70;99.90
34574;DHT22;20809;49.594;8.734;2023-09-19T13:41:47;23.80;99.90
34574;DHT22;20809;49.594;8.734;2023-09-19T13:44:48;23.80;99.90
34574;DHT22;20809;49.594;8.734;2023-09-19T13:47:48;24.00;99.90
34574;DHT22;20809;49.594;8.734;2023-09-19T13:50:49;23.80;99.90
34574;DHT22;20809;49.594;8.734;2023-09-19T13:53:50;23.60;99.90
34574;DHT22;20809;49.594;8.734;2023-09-19T13:56:51;23.70;99.90
34574;DHT22;20809;49.594;8.734;2023-09-19T13:59:52;23.80;99.90
34574;DHT22;20809;49.594;8.734;2023-09-19T14:02:54;23.80;99.90
34574;DHT22;20809;49.594;8.734;2023-09-19T14:05:55;23.70;99.90
34574;DHT22;20809;49.594;8.734;2023-09-19T14:08:56;23.50;99.90
34574;DHT22;20809;49.594;8.734;2023-09-19T14:11:56;23.70;99.90
34574;DHT22;20809;49.594;8.734;2023-09-19T14:14:57;23.60;99.90
34574;DHT22;20809;49.594;8.734;2023-09-19T14:17:58;23.50;99.90
34574;DHT22;20809;49.594;8.734;2023-09-19T14:21:04;23.50;99.90
34574;DHT22;20809;49.594;8.734;2023-09-19T14:24:05;23.40;99.90
34574;DHT22;20809;49.594;8.734;2023-09-19T14:27:13;23.20;99.90
34574;DHT22;20809;49.594;8.734;2023-09-19T14:30:14;23.10;99.90
34574;DHT22;20809;49.594;8.734;2023-09-19T14:33:14;23.00;99.90
34574;DHT22;20809;49.594;8.734;2023-09-19T14:36:16;23.20;99.90
34574;DHT22;20809;49.594;8.734;2023-09-19T14:39:17;23.30;99.90
34574;DHT22;20809;49.594;8.734;2023-09-19T14:42:20;23.30;99.90
34574;DHT22;20809;49.594;8.734;2023-09-19T14:45:21;23.00;99.90
34574;DHT22;20809;49.594;8.734;2023-09-19T14:48:21;22.90;99.90
34574;DHT22;20809;49.594;8.734;2023-09-19T14:51:26;22.90;99.90
34574;DHT22;20809;49.594;8.734;2023-09-19T14:54:26;22.70;99.90
34574;DHT22;20809;49.594;8.734;2023-09-19T14:57:29;22.50;99.90
34574;DHT22;20809;49.594;8.734;2023-09-19T15:00:30;22.40;99.90
34574;DHT22;20809;49.594;8.734;2023-09-19T15:03:33;22.40;99.90
34574;DHT22;20809;49.594;8.734;2023-09-19T15:06:35;22.40;99.90
34574;DHT22;20809;49.594;8.734;2023-09-19T15:09:36;22.40;99.90
34574;DHT22;20809;49.594;8.734;2023-09-19T15:12:36;22.50;99.90
34574;DHT22;20809;49.594;8.734;2023-09-19T15:15:38;22.60;99.90
34574;DHT22;20809;49.594;8.734;2023-09-19T15:18:40;22.80;99.90
34574;DHT22;20809;49.594;8.734;2023-09-19T15:21:41;23.10;99.90
34574;DHT22;20809;49.594;8.734;2023-09-19T15:24:42;23.10;99.90
34574;DHT22;20809;49.594;8.734;2023-09-19T15:27:43;22.90;99.90
34574;DHT22;20809;49.594;8.734;2023-09-19T15:30:45;22.80;99.90
34574;DHT22;20809;49.594;8.734;2023-09-19T15:33:46;22.90;99.90
34574;DHT22;20809;49.594;8.734;2023-09-19T15:36:46;23.10;99.90
34574;DHT22;20809;49.594;8.734;2023-09-19T15:39:47;23.40;99.90
34574;DHT22;20809;49.594;8.734;2023-09-19T15:42:48;23.50;99.90
34574;DHT22;20809;49.594;8.734;2023-09-19T15:45:49;23.50;99.90
34574;DHT22;20809;49.594;8.734;2023-09-19T15:48:50;23.50;99.90
34574;DHT22;20809;49.594;8.734;2023-09-19T15:51:50;23.40;99.90
34574;DHT22;20809;49.594;8.734;2023-09-19T15:54:51;23.40;99.90
34574;DHT22;20809;49.594;8.734;2023-09-19T15:57:52;23.50;99.90
34574;DHT22;20809;49.594;8.734;2023-09-19T16:00:53;23.40;99.90
34574;DHT22;20809;49.594;8.734;2023-09-19T16:03:54;23.40;99.90
34574;DHT22;20809;49.594;8.734;2023-09-19T16:06:58;23.20;99.90
34574;DHT22;20809;49.594;8.734;2023-09-19T16:09:59;22.90;99.90
34574;DHT22;20809;49.594;8.734;2023-09-19T16:13:00;22.80;99.90
34574;DHT22;20809;49.594;8.734;2023-09-19T16:16:00;22.60;99.90
34574;DHT22;20809;49.594;8.734;2023-09-19T16:19:02;22.40;99.90
34574;DHT22;20809;49.594;8.734;2023-09-19T16:22:04;22.30;99.90
34574;DHT22;20809;49.594;8.734;2023-09-19T16:25:05;22.20;99.90
34574;DHT22;20809;49.594;8.734;2023-09-19T16:28:05;22.10;99.90
34574;DHT22;20809;49.594;8.734;2023-09-19T16:31:07;22.00;99.90
34574;DHT22;20809;49.594;8.734;2023-09-19T16:34:08;21.80;99.90
34574;DHT22;20809;49.594;8.734;2023-09-19T16:37:09;21.60;99.90
34574;DHT22;20809;49.594;8.734;2023-09-19T16:40:10;21.40;99.90
34574;DHT22;20809;49.594;8.734;2023-09-19T16:43:11;21.20;99.90
34574;DHT22;20809;49.594;8.734;2023-09-19T16:46:13;21.10;99.90
34574;DHT22;20809;49.594;8.734;2023-09-19T16:49:16;21.00;99.90
34574;DHT22;20809;49.594;8.734;2023-09-19T16:52:17;21.00;99.90
34574;DHT22;20809;49.594;8.734;2023-09-19T16:55:17;20.90;99.90
34574;DHT22;20809;49.594;8.734;2023-09-19T16:58:21;20.80;99.90
34574;DHT22;20809;49.594;8.734;2023-09-19T17:01:22;20.70;99.90
34574;DHT22;20809;49.594;8.734;2023-09-19T17:04:24;20.60;99.90
34574;DHT22;20809;49.594;8.734;2023-09-19T17:07:25;20.50;99.90
34574;DHT22;20809;49.594;8.734;2023-09-19T17:10:30;20.40;99.90
34574;DHT22;20809;49.594;8.734;2023-09-19T17:13:32;20.30;99.90
34574;DHT22;20809;49.594;8.734;2023-09-19T17:16:33;20.30;99.90
34574;DHT22;20809;49.594;8.734;2023-09-19T17:19:37;20.20;99.90
34574;DHT22;20809;49.594;8.734;2023-09-19T17:22:38;20.10;99.90
34574;DHT22;20809;49.594;8.734;2023-09-19T17:25:39;20.00;99.90
34574;DHT22;20809;49.594;8.734;2023-09-19T17:28:41;20.00;99.90
34574;DHT22;20809;49.594;8.734;2023-09-19T17:31:43;19.80;99.90
34574;DHT22;20809;49.594;8.734;2023-09-19T17:34:47;19.70;99.90
34574;DHT22;20809;49.594;8.734;2023-09-19T17:37:49;19.70;99.90
34574;DHT22;20809;49.594;8.734;2023-09-19T17:40:50;19.60;99.90
34574;DHT22;20809;49.594;8.734;2023-09-19T17:43:54;19.50;99.90
34574;DHT22;20809;49.594;8.734;2023-09-19T17:46:58;19.50;99.90
34574;DHT22;20809;49.594;8.734;2023-09-19T17:50:19;19.40;99.90
34574;DHT22;20809;49.594;8.734;2023-09-19T17:53:20;19.30;99.90
34574;DHT22;20809;49.594;8.734;2023-09-19T17:56:21;19.30;99.90
34574;DHT22;20809;49.594;8.734;2023-09-19T17:59:25;19.20;99.90
34574;DHT22;20809;49.594;8.734;2023-09-19T18:02:26;19.10;99.90
34574;DHT22;20809;49.594;8.734;2023-09-19T18:05:28;19.10;99.90
34574;DHT22;20809;49.594;8.734;2023-09-19T18:08:34;19.00;99.90
34574;DHT22;20809;49.594;8.734;2023-09-19T18:11:42;19.00;99.90
34574;DHT22;20809;49.594;8.734;2023-09-19T18:14:43;18.90;99.90
34574;DHT22;20809;49.594;8.734;2023-09-19T18:17:45;18.80;99.90
34574;DHT22;20809;49.594;8.734;2023-09-19T18:20:48;18.70;99.90
34574;DHT22;20809;49.594;8.734;2023-09-19T18:23:56;18.60;99.90
34574;DHT22;20809;49.594;8.734;2023-09-19T18:27:08;18.50;99.90
34574;DHT22;20809;49.594;8.734;2023-09-19T18:30:12;18.50;99.90
34574;DHT22;20809;49.594;8.734;2023-09-19T18:33:15;18.40;99.90
34574;DHT22;20809;49.594;8.734;2023-09-19T18:36:16;18.30;99.90
34574;DHT22;20809;49.594;8.734;2023-09-19T18:39:17;18.30;99.90
34574;DHT22;20809;49.594;8.734;2023-09-19T18:42:21;18.30;99.90
34574;DHT22;20809;49.594;8.734;2023-09-19T18:45:32;18.30;99.90
34574;DHT22;20809;49.594;8.734;2023-09-19T18:48:35;18.30;99.90
34574;DHT22;20809;49.594;8.734;2023-09-19T18:51:36;18.40;99.90
34574;DHT22;20809;49.594;8.734;2023-09-19T18:54:36;18.40;99.90
34574;DHT22;20809;49.594;8.734;2023-09-19T18:57:42;18.50;99.90
34574;DHT22;20809;49.594;8.734;2023-09-19T19:00:45;18.40;99.90
34574;DHT22;20809;49.594;8.734;2023-09-19T19:03:51;18.40;99.90
34574;DHT22;20809;49.594;8.734;2023-09-19T19:06:53;18.40;99.90
34574;DHT22;20809;49.594;8.734;2023-09-19T19:09:54;18.40;99.90
34574;DHT22;20809;49.594;8.734;2023-09-19T19:12:57;18.30;99.90
34574;DHT22;20809;49.594;8.734;2023-09-19T19:16:01;18.30;99.90
34574;DHT22;20809;49.594;8.734;2023-09-19T19:19:05;18.40;99.90
34574;DHT22;20809;49.594;8.734;2023-09-19T19:22:12;18.40;99.90
34574;DHT22;20809;49.594;8.734;2023-09-19T19:25:15;18.40;99.90
34574;DHT22;20809;49.594;8.734;2023-09-19T19:28:20;18.40;99.90
34574;DHT22;20809;49.594;8.734;2023-09-19T19:31:23;18.40;99.90
34574;DHT22;20809;49.594;8.734;2023-09-19T19:34:25;18.40;99.90
34574;DHT22;20809;49.594;8.734;2023-09-19T19:37:26;18.40;99.90
34574;DHT22;20809;49.594;8.734;2023-09-19T19:40:27;18.50;99.90
34574;DHT22;20809;49.594;8.734;2023-09-19T19:43:28;18.50;99.90
34574;DHT22;20809;49.594;8.734;2023-09-19T19:46:30;18.50;99.90